sensor_id;sensor_type;location;lat;lon;timestamp;temperature;humidity
43842;DHT22;29495;49.970;20.842;2022-08-20T00:01:44;23.40;99.90
43842;DHT22;29495;49.970;20.842;2022-08-20T00:04:12;23.40;99.90
43842;DHT22;29495;49.970;20.842;2022-08-20T00:06:39;23.20;99.90
43842;DHT22;29495;49.970;20.842;2022-08-20T00:09:05;23.30;99.90
43842;DHT22;29495;49.970;20.842;2022-08-20T00:11:32;23.30;99.90
43842;DHT22;29495;49.970;20.842;2022-08-20T00:14:01;23.30;99.90
43842;DHT22;29495;49.970;20.842;2022-08-20T00:16:33;23.40;99.90
43842;DHT22;29495;49.970;20.842;2022-08-20T00:19:00;23.10;99.90
43842;DHT22;29495;49.970;20.842;2022-08-20T00:21:26;23.10;99.90
43842;DHT22;29495;49.970;20.842;2022-08-20T00:23:54;23.10;99.90
43842;DHT22;29495;49.970;20.842;2022-08-20T00:26:21;23.10;99.90
43842;DHT22;29495;49.970;20.842;2022-08-20T00:28:48;23.00;99.90
43842;DHT22;29495;49.970;20.842;2022-08-20T00:31:16;23.00;99.90
43842;DHT22;29495;49.970;20.842;2022-08-20T00:33:44;22.90;99.90
43842;DHT22;29495;49.970;20.842;2022-08-20T00:36:11;22.80;99.90
43842;DHT22;29495;49.970;20.842;2022-08-20T00:38:39;22.80;99.90
43842;DHT22;29495;49.970;20.842;2022-08-20T00:41:07;22.90;99.90
43842;DHT22;29495;49.970;20.842;2022-08-20T00:43:35;22.90;99.90
43842;DHT22;29495;49.970;20.842;2022-08-20T00:46:07;22.80;99.90
43842;DHT22;29495;49.970;20.842;2022-08-20T00:48:36;22.70;99.90
43842;DHT22;29495;49.970;20.842;2022-08-20T00:51:13;22.70;99.90
43842;DHT22;29495;49.970;20.842;2022-08-20T00:53:41;22.80;99.90
43842;DHT22;29495;49.970;20.842;2022-08-20T00:56:09;22.70;99.90
43842;DHT22;29495;49.970;20.842;2022-08-20T00:58:36;22.70;99.90
43842;DHT22;29495;49.970;20.842;2022-08-20T01:01:04;22.70;99.90
43842;DHT22;29495;49.970;20.842;2022-08-20T01:03:31;22.70;99.90
43842;DHT22;29495;49.970;20.842;2022-08-20T01:05:58;22.70;99.90
43842;DHT22;29495;49.970;20.842;2022-08-20T01:08:24;22.50;99.90
43842;DHT22;29495;49.970;20.842;2022-08-20T01:10:53;22.50;99.90
43842;DHT22;29495;49.970;20.842;2022-08-20T01:13:34;22.50;99.90
43842;DHT22;29495;49.970;20.842;2022-08-20T01:16:04;22.60;99.90
43842;DHT22;29495;49.970;20.842;2022-08-20T01:18:36;22.70;99.90
43842;DHT22;29495;49.970;20.842;2022-08-20T01:21:05;22.70;99.90
43842;DHT22;29495;49.970;20.842;2022-08-20T01:24:07;22.50;99.90
43842;DHT22;29495;49.970;20.842;2022-08-20T01:26:43;22.60;99.90
43842;DHT22;29495;49.970;20.842;2022-08-20T01:29:17;22.60;99.90
43842;DHT22;29495;49.970;20.842;2022-08-20T01:31:44;22.70;99.90
43842;DHT22;29495;49.970;20.842;2022-08-20T01:34:13;22.70;99.90
43842;DHT22;29495;49.970;20.842;2022-08-20T01:36:53;22.70;99.90
43842;DHT22;29495;49.970;20.842;2022-08-20T01:39:26;22.70;99.90
43842;DHT22;29495;49.970;20.842;2022-08-20T01:44:43;22.80;99.90
43842;DHT22;29495;49.970;20.842;2022-08-20T01:47:25;22.80;99.90
43842;DHT22;29495;49.970;20.842;2022-08-20T01:49:58;22.60;99.90
43842;DHT22;29495;49.970;20.842;2022-08-20T01:54:57;22.50;99.90
43842;DHT22;29495;49.970;20.842;2022-08-20T01:57:26;22.60;99.90
43842;DHT22;29495;49.970;20.842;2022-08-20T01:59:52;22.50;99.90
43842;DHT22;29495;49.970;20.842;2022-08-20T02:02:18;22.50;99.90
43842;DHT22;29495;49.970;20.842;2022-08-20T02:04:44;22.50;99.90
43842;DHT22;29495;49.970;20.842;2022-08-20T02:07:19;22.50;99.90
43842;DHT22;29495;49.970;20.842;2022-08-20T02:09:46;22.50;99.90
43842;DHT22;29495;49.970;20.842;2022-08-20T02:12:13;22.50;99.90
43842;DHT22;29495;49.970;20.842;2022-08-20T02:14:42;22.50;99.90
43842;DHT22;29495;49.970;20.842;2022-08-20T02:17:08;22.60;99.90
43842;DHT22;29495;49.970;20.842;2022-08-20T02:19:38;22.60;99.90
43842;DHT22;29495;49.970;20.842;2022-08-20T02:22:20;22.60;99.90
43842;DHT22;29495;49.970;20.842;2022-08-20T02:24:47;22.50;99.90
43842;DHT22;29495;49.970;20.842;2022-08-20T02:27:13;22.50;99.90
43842;DHT22;29495;49.970;20.842;2022-08-20T02:29:39;22.50;99.90
43842;DHT22;29495;49.970;20.842;2022-08-20T02:32:06;22.40;99.90
43842;DHT22;29495;49.970;20.842;2022-08-20T02:34:34;22.40;99.90
43842;DHT22;29495;49.970;20.842;2022-08-20T02:37:01;22.30;99.90
43842;DHT22;29495;49.970;20.842;2022-08-20T02:39:27;22.30;99.90
43842;DHT22;29495;49.970;20.842;2022-08-20T02:41:53;22.20;99.90
43842;DHT22;29495;49.970;20.842;2022-08-20T02:44:19;22.20;99.90
43842;DHT22;29495;49.970;20.842;2022-08-20T02:46:47;22.30;99.90
43842;DHT22;29495;49.970;20.842;2022-08-20T02:49:16;22.30;99.90
43842;DHT22;29495;49.970;20.842;2022-08-20T02:51:43;22.30;99.90
43842;DHT22;29495;49.970;20.842;2022-08-20T02:54:09;22.40;99.90
43842;DHT22;29495;49.970;20.842;2022-08-20T02:56:36;22.30;99.90
43842;DHT22;29495;49.970;20.842;2022-08-20T02:59:03;22.40;99.90
43842;DHT22;29495;49.970;20.842;2022-08-20T03:01:29;22.50;99.90
43842;DHT22;29495;49.970;20.842;2022-08-20T03:03:56;22.50;99.90
43842;DHT22;29495;49.970;20.842;2022-08-20T03:06:25;22.40;99.90
43842;DHT22;29495;49.970;20.842;2022-08-20T03:08:51;22.60;99.90
43842;DHT22;29495;49.970;20.842;2022-08-20T03:11:18;22.70;99.90
43842;DHT22;29495;49.970;20.842;2022-08-20T03:13:45;22.70;99.90
43842;DHT22;29495;49.970;20.842;2022-08-20T03:16:12;22.50;99.90
43842;DHT22;29495;49.970;20.842;2022-08-20T03:18:43;22.40;99.90
43842;DHT22;29495;49.970;20.842;2022-08-20T03:21:10;22.40;99.90
43842;DHT22;29495;49.970;20.842;2022-08-20T03:23:37;22.40;99.90
43842;DHT22;29495;49.970;20.842;2022-08-20T03:26:06;22.30;99.90
43842;DHT22;29495;49.970;20.842;2022-08-20T03:28:32;22.30;99.90
43842;DHT22;29495;49.970;20.842;2022-08-20T03:30:59;22.20;99.90
43842;DHT22;29495;49.970;20.842;2022-08-20T03:33:26;22.30;99.90
43842;DHT22;29495;49.970;20.842;2022-08-20T03:35:52;22.20;99.90
43842;DHT22;29495;49.970;20.842;2022-08-20T03:38:21;22.20;99.90
43842;DHT22;29495;49.970;20.842;2022-08-20T03:40:48;22.30;99.90
43842;DHT22;29495;49.970;20.842;2022-08-20T03:43:15;22.30;99.90
43842;DHT22;29495;49.970;20.842;2022-08-20T03:45:42;22.30;99.90
43842;DHT22;29495;49.970;20.842;2022-08-20T03:48:12;22.20;99.90
43842;DHT22;29495;49.970;20.842;2022-08-20T03:50:39;22.20;99.90
43842;DHT22;29495;49.970;20.842;2022-08-20T03:53:09;22.30;99.90
43842;DHT22;29495;49.970;20.842;2022-08-20T03:55:35;22.30;99.90
43842;DHT22;29495;49.970;20.842;2022-08-20T03:58:04;22.30;99.90
43842;DHT22;29495;49.970;20.842;2022-08-20T04:00:39;22.20;99.90
43842;DHT22;29495;49.970;20.842;2022-08-20T04:03:06;22.10;99.90
43842;DHT22;29495;49.970;20.842;2022-08-20T04:05:34;22.20;99.90
43842;DHT22;29495;49.970;20.842;2022-08-20T04:08:11;22.30;99.90
43842;DHT22;29495;49.970;20.842;2022-08-20T04:10:37;22.20;99.90
43842;DHT22;29495;49.970;20.842;2022-08-20T04:13:05;22.30;99.90
43842;DHT22;29495;49.970;20.842;2022-08-20T04:15:33;22.30;99.90
43842;DHT22;29495;49.970;20.842;2022-08-20T04:18:00;22.30;99.90
43842;DHT22;29495;49.970;20.842;2022-08-20T04:20:31;22.50;99.90
43842;DHT22;29495;49.970;20.842;2022-08-20T04:22:57;22.50;99.90
43842;DHT22;29495;49.970;20.842;2022-08-20T04:25:23;22.60;99.90
43842;DHT22;29495;49.970;20.842;2022-08-20T04:27:49;22.60;99.90
43842;DHT22;29495;49.970;20.842;2022-08-20T04:30:18;22.70;99.90
43842;DHT22;29495;49.970;20.842;2022-08-20T04:32:45;22.70;99.90
43842;DHT22;29495;49.970;20.842;2022-08-20T04:35:13;22.80;99.90
43842;DHT22;29495;49.970;20.842;2022-08-20T04:37:45;22.80;99.90
43842;DHT22;29495;49.970;20.842;2022-08-20T04:40:16;22.80;99.90
43842;DHT22;29495;49.970;20.842;2022-08-20T04:43:02;22.90;99.90
43842;DHT22;29495;49.970;20.842;2022-08-20T04:45:33;22.80;99.90
43842;DHT22;29495;49.970;20.842;2022-08-20T04:48:04;22.80;99.90
43842;DHT22;29495;49.970;20.842;2022-08-20T04:50:38;22.80;99.90
43842;DHT22;29495;49.970;20.842;2022-08-20T04:53:07;22.90;99.90
43842;DHT22;29495;49.970;20.842;2022-08-20T04:55:34;23.10;99.90
43842;DHT22;29495;49.970;20.842;2022-08-20T04:58:09;23.30;99.90
43842;DHT22;29495;49.970;20.842;2022-08-20T05:00:35;23.50;99.90
43842;DHT22;29495;49.970;20.842;2022-08-20T05:03:03;23.70;99.90
43842;DHT22;29495;49.970;20.842;2022-08-20T05:05:32;23.90;99.90
43842;DHT22;29495;49.970;20.842;2022-08-20T05:08:01;24.20;99.90
43842;DHT22;29495;49.970;20.842;2022-08-20T05:10:27;24.40;99.90
43842;DHT22;29495;49.970;20.842;2022-08-20T05:12:53;24.50;99.90
43842;DHT22;29495;49.970;20.842;2022-08-20T05:15:19;24.60;99.90
43842;DHT22;29495;49.970;20.842;2022-08-20T05:17:45;24.90;99.90
43842;DHT22;29495;49.970;20.842;2022-08-20T05:20:15;25.00;99.90
43842;DHT22;29495;49.970;20.842;2022-08-20T05:22:42;25.30;99.90
43842;DHT22;29495;49.970;20.842;2022-08-20T05:25:09;25.70;99.90
43842;DHT22;29495;49.970;20.842;2022-08-20T05:27:35;26.10;99.90
43842;DHT22;29495;49.970;20.842;2022-08-20T05:30:10;26.30;99.90
43842;DHT22;29495;49.970;20.842;2022-08-20T05:32:37;27.20;99.90
43842;DHT22;29495;49.970;20.842;2022-08-20T05:35:06;27.70;99.90
43842;DHT22;29495;49.970;20.842;2022-08-20T05:37:35;28.60;99.90
43842;DHT22;29495;49.970;20.842;2022-08-20T05:40:01;28.70;99.90
43842;DHT22;29495;49.970;20.842;2022-08-20T05:42:27;28.90;99.90
43842;DHT22;29495;49.970;20.842;2022-08-20T05:44:54;29.40;99.30
43842;DHT22;29495;49.970;20.842;2022-08-20T05:47:19;29.30;99.00
43842;DHT22;29495;49.970;20.842;2022-08-20T05:49:52;29.60;98.80
43842;DHT22;29495;49.970;20.842;2022-08-20T05:52:18;29.90;97.80
43842;DHT22;29495;49.970;20.842;2022-08-20T05:54:44;30.40;98.20
43842;DHT22;29495;49.970;20.842;2022-08-20T05:57:10;30.90;96.20
43842;DHT22;29495;49.970;20.842;2022-08-20T05:59:36;30.80;94.60
43842;DHT22;29495;49.970;20.842;2022-08-20T06:02:04;30.50;93.70
43842;DHT22;29495;49.970;20.842;2022-08-20T06:04:50;30.70;94.50
43842;DHT22;29495;49.970;20.842;2022-08-20T06:07:16;31.50;93.80
43842;DHT22;29495;49.970;20.842;2022-08-20T06:09:42;31.40;92.10
43842;DHT22;29495;49.970;20.842;2022-08-20T06:12:08;31.90;90.70
43842;DHT22;29495;49.970;20.842;2022-08-20T06:14:34;31.60;90.60
43842;DHT22;29495;49.970;20.842;2022-08-20T06:17:11;32.40;89.80
43842;DHT22;29495;49.970;20.842;2022-08-20T06:19:38;33.10;89.20
43842;DHT22;29495;49.970;20.842;2022-08-20T06:22:05;32.90;85.50
43842;DHT22;29495;49.970;20.842;2022-08-20T06:24:32;33.00;84.30
43842;DHT22;29495;49.970;20.842;2022-08-20T06:27:00;33.30;82.30
43842;DHT22;29495;49.970;20.842;2022-08-20T06:29:26;33.60;78.80
43842;DHT22;29495;49.970;20.842;2022-08-20T06:31:53;33.50;77.00
43842;DHT22;29495;49.970;20.842;2022-08-20T06:34:19;33.70;76.80
43842;DHT22;29495;49.970;20.842;2022-08-20T06:36:45;33.80;75.60
43842;DHT22;29495;49.970;20.842;2022-08-20T06:39:13;34.60;74.10
43842;DHT22;29495;49.970;20.842;2022-08-20T06:41:39;34.40;71.80
43842;DHT22;29495;49.970;20.842;2022-08-20T06:44:06;35.10;69.80
43842;DHT22;29495;49.970;20.842;2022-08-20T06:46:35;35.00;69.60
43842;DHT22;29495;49.970;20.842;2022-08-20T06:49:04;35.20;68.60
43842;DHT22;29495;49.970;20.842;2022-08-20T06:51:31;34.70;69.20
43842;DHT22;29495;49.970;20.842;2022-08-20T06:53:57;34.90;69.60
43842;DHT22;29495;49.970;20.842;2022-08-20T06:56:22;34.80;68.30
43842;DHT22;29495;49.970;20.842;2022-08-20T06:58:48;34.80;69.40
43842;DHT22;29495;49.970;20.842;2022-08-20T07:01:15;34.80;68.60
43842;DHT22;29495;49.970;20.842;2022-08-20T07:03:46;34.20;68.80
43842;DHT22;29495;49.970;20.842;2022-08-20T07:06:13;34.20;69.30
43842;DHT22;29495;49.970;20.842;2022-08-20T07:08:41;34.70;68.90
43842;DHT22;29495;49.970;20.842;2022-08-20T07:11:07;34.90;69.70
43842;DHT22;29495;49.970;20.842;2022-08-20T07:13:34;35.00;68.30
43842;DHT22;29495;49.970;20.842;2022-08-20T07:16:03;35.50;66.50
43842;DHT22;29495;49.970;20.842;2022-08-20T07:18:29;36.20;66.30
43842;DHT22;29495;49.970;20.842;2022-08-20T07:20:56;36.10;66.40
43842;DHT22;29495;49.970;20.842;2022-08-20T07:23:23;35.30;67.00
43842;DHT22;29495;49.970;20.842;2022-08-20T07:25:49;35.50;66.30
43842;DHT22;29495;49.970;20.842;2022-08-20T07:28:18;35.90;65.10
43842;DHT22;29495;49.970;20.842;2022-08-20T07:30:46;35.90;65.70
43842;DHT22;29495;49.970;20.842;2022-08-20T07:33:31;36.40;63.90
43842;DHT22;29495;49.970;20.842;2022-08-20T07:35:59;36.20;63.50
43842;DHT22;29495;49.970;20.842;2022-08-20T07:38:26;35.90;64.30
43842;DHT22;29495;49.970;20.842;2022-08-20T07:40:58;35.70;65.70
43842;DHT22;29495;49.970;20.842;2022-08-20T07:43:25;35.70;65.10
43842;DHT22;29495;49.970;20.842;2022-08-20T07:45:52;35.40;66.40
43842;DHT22;29495;49.970;20.842;2022-08-20T07:48:22;35.20;65.00
43842;DHT22;29495;49.970;20.842;2022-08-20T07:50:54;34.40;67.80
43842;DHT22;29495;49.970;20.842;2022-08-20T07:53:19;33.90;67.90
43842;DHT22;29495;49.970;20.842;2022-08-20T07:55:45;34.10;68.20
43842;DHT22;29495;49.970;20.842;2022-08-20T07:58:14;34.20;69.50
43842;DHT22;29495;49.970;20.842;2022-08-20T08:00:43;34.10;70.10
43842;DHT22;29495;49.970;20.842;2022-08-20T08:03:09;33.80;69.70
43842;DHT22;29495;49.970;20.842;2022-08-20T08:05:38;33.80;70.90
43842;DHT22;29495;49.970;20.842;2022-08-20T08:08:06;33.30;70.00
43842;DHT22;29495;49.970;20.842;2022-08-20T08:10:34;33.20;69.50
43842;DHT22;29495;49.970;20.842;2022-08-20T08:13:03;32.50;74.10
43842;DHT22;29495;49.970;20.842;2022-08-20T08:15:31;32.50;74.40
43842;DHT22;29495;49.970;20.842;2022-08-20T08:18:02;32.90;76.80
43842;DHT22;29495;49.970;20.842;2022-08-20T08:20:30;32.60;74.50
43842;DHT22;29495;49.970;20.842;2022-08-20T08:22:56;32.70;77.40
43842;DHT22;29495;49.970;20.842;2022-08-20T08:25:23;32.20;75.20
43842;DHT22;29495;49.970;20.842;2022-08-20T08:27:49;32.00;77.60
43842;DHT22;29495;49.970;20.842;2022-08-20T08:30:16;32.20;77.30
43842;DHT22;29495;49.970;20.842;2022-08-20T08:32:42;32.20;81.70
43842;DHT22;29495;49.970;20.842;2022-08-20T08:35:27;32.30;81.70
43842;DHT22;29495;49.970;20.842;2022-08-20T08:37:52;32.30;80.00
43842;DHT22;29495;49.970;20.842;2022-08-20T08:40:20;32.50;79.20
43842;DHT22;29495;49.970;20.842;2022-08-20T08:42:54;32.50;78.60
43842;DHT22;29495;49.970;20.842;2022-08-20T08:45:42;32.40;81.20
43842;DHT22;29495;49.970;20.842;2022-08-20T08:48:12;32.50;79.50
43842;DHT22;29495;49.970;20.842;2022-08-20T08:50:39;31.60;80.80
43842;DHT22;29495;49.970;20.842;2022-08-20T08:53:07;31.90;81.70
43842;DHT22;29495;49.970;20.842;2022-08-20T08:55:35;32.10;83.10
43842;DHT22;29495;49.970;20.842;2022-08-20T08:58:02;32.00;87.30
43842;DHT22;29495;49.970;20.842;2022-08-20T09:00:29;32.30;87.50
43842;DHT22;29495;49.970;20.842;2022-08-20T09:03:02;31.80;86.60
43842;DHT22;29495;49.970;20.842;2022-08-20T09:05:48;31.90;86.60
43842;DHT22;29495;49.970;20.842;2022-08-20T09:08:18;31.80;90.20
43842;DHT22;29495;49.970;20.842;2022-08-20T09:10:47;32.10;87.90
43842;DHT22;29495;49.970;20.842;2022-08-20T09:13:13;31.90;87.20
43842;DHT22;29495;49.970;20.842;2022-08-20T09:15:39;32.00;85.90
43842;DHT22;29495;49.970;20.842;2022-08-20T09:18:05;31.70;86.40
43842;DHT22;29495;49.970;20.842;2022-08-20T09:20:31;31.70;87.40
43842;DHT22;29495;49.970;20.842;2022-08-20T09:22:57;32.10;85.80
43842;DHT22;29495;49.970;20.842;2022-08-20T09:25:24;32.20;85.70
43842;DHT22;29495;49.970;20.842;2022-08-20T09:27:50;32.10;89.70
43842;DHT22;29495;49.970;20.842;2022-08-20T09:30:16;32.30;87.00
43842;DHT22;29495;49.970;20.842;2022-08-20T09:32:43;32.30;87.20
43842;DHT22;29495;49.970;20.842;2022-08-20T09:35:09;32.30;86.20
43842;DHT22;29495;49.970;20.842;2022-08-20T09:37:35;32.30;86.40
43842;DHT22;29495;49.970;20.842;2022-08-20T09:40:03;32.40;84.60
43842;DHT22;29495;49.970;20.842;2022-08-20T09:42:34;32.40;89.40
43842;DHT22;29495;49.970;20.842;2022-08-20T09:45:00;32.40;87.90
43842;DHT22;29495;49.970;20.842;2022-08-20T09:47:27;31.90;85.70
43842;DHT22;29495;49.970;20.842;2022-08-20T09:49:53;32.30;89.00
43842;DHT22;29495;49.970;20.842;2022-08-20T09:52:27;32.10;90.00
43842;DHT22;29495;49.970;20.842;2022-08-20T09:55:01;32.20;85.40
43842;DHT22;29495;49.970;20.842;2022-08-20T09:57:28;31.70;83.40
43842;DHT22;29495;49.970;20.842;2022-08-20T10:00:00;31.70;87.10
43842;DHT22;29495;49.970;20.842;2022-08-20T10:02:27;31.70;89.30
43842;DHT22;29495;49.970;20.842;2022-08-20T10:04:53;31.70;84.90
43842;DHT22;29495;49.970;20.842;2022-08-20T10:07:19;32.00;86.60
43842;DHT22;29495;49.970;20.842;2022-08-20T10:09:45;32.00;89.00
43842;DHT22;29495;49.970;20.842;2022-08-20T10:12:11;32.00;87.50
43842;DHT22;29495;49.970;20.842;2022-08-20T10:14:37;32.10;91.30
43842;DHT22;29495;49.970;20.842;2022-08-20T10:17:03;31.80;87.30
43842;DHT22;29495;49.970;20.842;2022-08-20T10:19:29;31.60;88.50
43842;DHT22;29495;49.970;20.842;2022-08-20T10:21:57;31.90;89.10
43842;DHT22;29495;49.970;20.842;2022-08-20T10:24:23;31.60;89.30
43842;DHT22;29495;49.970;20.842;2022-08-20T10:26:49;31.50;90.20
43842;DHT22;29495;49.970;20.842;2022-08-20T10:29:15;31.80;91.60
43842;DHT22;29495;49.970;20.842;2022-08-20T10:31:42;31.90;86.40
43842;DHT22;29495;49.970;20.842;2022-08-20T10:34:08;31.50;87.60
43842;DHT22;29495;49.970;20.842;2022-08-20T10:36:34;31.60;90.50
43842;DHT22;29495;49.970;20.842;2022-08-20T10:39:00;31.70;88.40
43842;DHT22;29495;49.970;20.842;2022-08-20T10:41:26;32.30;88.70
43842;DHT22;29495;49.970;20.842;2022-08-20T10:43:53;31.80;87.20
43842;DHT22;29495;49.970;20.842;2022-08-20T10:46:19;31.60;84.50
43842;DHT22;29495;49.970;20.842;2022-08-20T10:48:45;31.90;85.80
43842;DHT22;29495;49.970;20.842;2022-08-20T10:51:11;32.20;80.90
43842;DHT22;29495;49.970;20.842;2022-08-20T10:53:37;32.30;79.70
43842;DHT22;29495;49.970;20.842;2022-08-20T10:56:03;32.40;83.30
43842;DHT22;29495;49.970;20.842;2022-08-20T10:58:29;32.10;78.60
43842;DHT22;29495;49.970;20.842;2022-08-20T11:00:55;31.90;79.70
43842;DHT22;29495;49.970;20.842;2022-08-20T11:03:21;32.40;77.80
43842;DHT22;29495;49.970;20.842;2022-08-20T11:05:47;32.90;81.80
43842;DHT22;29495;49.970;20.842;2022-08-20T11:08:13;32.80;72.30
43842;DHT22;29495;49.970;20.842;2022-08-20T11:10:40;32.80;72.60
43842;DHT22;29495;49.970;20.842;2022-08-20T11:13:06;33.30;74.70
43842;DHT22;29495;49.970;20.842;2022-08-20T11:15:35;33.30;70.20
43842;DHT22;29495;49.970;20.842;2022-08-20T11:18:02;33.10;71.50
43842;DHT22;29495;49.970;20.842;2022-08-20T11:20:28;32.60;71.40
43842;DHT22;29495;49.970;20.842;2022-08-20T11:22:56;32.80;72.90
43842;DHT22;29495;49.970;20.842;2022-08-20T11:25:23;32.70;71.20
43842;DHT22;29495;49.970;20.842;2022-08-20T11:27:51;32.80;71.90
43842;DHT22;29495;49.970;20.842;2022-08-20T11:30:27;32.80;71.00
43842;DHT22;29495;49.970;20.842;2022-08-20T11:32:53;32.60;71.00
43842;DHT22;29495;49.970;20.842;2022-08-20T11:35:20;32.80;75.00
43842;DHT22;29495;49.970;20.842;2022-08-20T11:37:52;32.70;73.50
43842;DHT22;29495;49.970;20.842;2022-08-20T11:40:19;32.90;75.00
43842;DHT22;29495;49.970;20.842;2022-08-20T11:42:45;33.10;74.90
43842;DHT22;29495;49.970;20.842;2022-08-20T11:45:14;33.30;72.80
43842;DHT22;29495;49.970;20.842;2022-08-20T11:47:41;33.10;73.40
43842;DHT22;29495;49.970;20.842;2022-08-20T11:50:10;33.20;72.10
43842;DHT22;29495;49.970;20.842;2022-08-20T11:52:37;33.40;74.30
43842;DHT22;29495;49.970;20.842;2022-08-20T11:55:05;33.40;71.00
43842;DHT22;29495;49.970;20.842;2022-08-20T11:57:34;33.20;70.00
43842;DHT22;29495;49.970;20.842;2022-08-20T12:00:03;33.50;71.30
43842;DHT22;29495;49.970;20.842;2022-08-20T12:02:34;33.30;70.70
43842;DHT22;29495;49.970;20.842;2022-08-20T12:05:00;33.50;72.60
43842;DHT22;29495;49.970;20.842;2022-08-20T12:07:26;33.60;70.20
43842;DHT22;29495;49.970;20.842;2022-08-20T12:09:52;33.70;69.30
43842;DHT22;29495;49.970;20.842;2022-08-20T12:12:19;33.40;66.90
43842;DHT22;29495;49.970;20.842;2022-08-20T12:14:47;33.70;68.60
43842;DHT22;29495;49.970;20.842;2022-08-20T12:17:17;33.90;65.10
43842;DHT22;29495;49.970;20.842;2022-08-20T12:19:44;34.10;65.00
43842;DHT22;29495;49.970;20.842;2022-08-20T12:22:11;33.70;63.00
43842;DHT22;29495;49.970;20.842;2022-08-20T12:24:37;33.90;62.30
43842;DHT22;29495;49.970;20.842;2022-08-20T12:27:20;33.50;61.30
43842;DHT22;29495;49.970;20.842;2022-08-20T12:29:49;33.50;63.20
43842;DHT22;29495;49.970;20.842;2022-08-20T12:32:22;34.00;61.80
43842;DHT22;29495;49.970;20.842;2022-08-20T12:34:48;33.60;58.90
43842;DHT22;29495;49.970;20.842;2022-08-20T12:37:18;33.20;59.60
43842;DHT22;29495;49.970;20.842;2022-08-20T12:39:48;33.30;60.00
43842;DHT22;29495;49.970;20.842;2022-08-20T12:42:15;33.30;59.50
43842;DHT22;29495;49.970;20.842;2022-08-20T12:44:41;33.20;59.70
43842;DHT22;29495;49.970;20.842;2022-08-20T12:47:17;32.60;60.90
43842;DHT22;29495;49.970;20.842;2022-08-20T12:49:46;32.20;59.90
43842;DHT22;29495;49.970;20.842;2022-08-20T12:52:15;31.80;59.40
43842;DHT22;29495;49.970;20.842;2022-08-20T12:54:41;31.70;60.40
43842;DHT22;29495;49.970;20.842;2022-08-20T12:57:13;31.50;63.80
43842;DHT22;29495;49.970;20.842;2022-08-20T12:59:40;31.30;62.70
43842;DHT22;29495;49.970;20.842;2022-08-20T13:02:06;31.10;63.20
43842;DHT22;29495;49.970;20.842;2022-08-20T13:04:32;31.10;64.00
43842;DHT22;29495;49.970;20.842;2022-08-20T13:07:02;31.30;63.60
43842;DHT22;29495;49.970;20.842;2022-08-20T13:09:28;31.10;64.20
43842;DHT22;29495;49.970;20.842;2022-08-20T13:11:54;30.90;66.30
43842;DHT22;29495;49.970;20.842;2022-08-20T13:14:20;31.00;64.50
43842;DHT22;29495;49.970;20.842;2022-08-20T13:16:46;31.10;65.50
43842;DHT22;29495;49.970;20.842;2022-08-20T13:19:12;31.20;66.70
43842;DHT22;29495;49.970;20.842;2022-08-20T13:21:38;31.30;65.90
43842;DHT22;29495;49.970;20.842;2022-08-20T13:24:04;31.40;65.80
43842;DHT22;29495;49.970;20.842;2022-08-20T13:26:30;31.60;67.20
43842;DHT22;29495;49.970;20.842;2022-08-20T13:28:56;31.60;69.90
43842;DHT22;29495;49.970;20.842;2022-08-20T13:31:23;31.70;66.70
43842;DHT22;29495;49.970;20.842;2022-08-20T13:33:50;31.80;66.90
43842;DHT22;29495;49.970;20.842;2022-08-20T13:36:17;31.90;66.10
43842;DHT22;29495;49.970;20.842;2022-08-20T13:38:43;32.00;67.90
43842;DHT22;29495;49.970;20.842;2022-08-20T13:41:10;32.00;69.80
43842;DHT22;29495;49.970;20.842;2022-08-20T13:43:36;32.00;68.30
43842;DHT22;29495;49.970;20.842;2022-08-20T13:46:02;32.00;70.00
43842;DHT22;29495;49.970;20.842;2022-08-20T13:48:29;32.10;71.90
43842;DHT22;29495;49.970;20.842;2022-08-20T13:50:56;32.10;68.40
43842;DHT22;29495;49.970;20.842;2022-08-20T13:53:22;32.20;69.60
43842;DHT22;29495;49.970;20.842;2022-08-20T13:55:49;32.10;67.20
43842;DHT22;29495;49.970;20.842;2022-08-20T13:58:15;32.10;67.60
43842;DHT22;29495;49.970;20.842;2022-08-20T14:00:44;32.10;70.60
43842;DHT22;29495;49.970;20.842;2022-08-20T14:03:10;32.10;71.10
43842;DHT22;29495;49.970;20.842;2022-08-20T14:05:37;32.10;69.90
43842;DHT22;29495;49.970;20.842;2022-08-20T14:08:12;32.20;71.20
43842;DHT22;29495;49.970;20.842;2022-08-20T14:10:38;32.10;70.50
43842;DHT22;29495;49.970;20.842;2022-08-20T14:13:05;32.20;71.70
43842;DHT22;29495;49.970;20.842;2022-08-20T14:15:33;31.90;69.70
43842;DHT22;29495;49.970;20.842;2022-08-20T14:17:58;32.10;71.90
43842;DHT22;29495;49.970;20.842;2022-08-20T14:20:28;32.30;70.60
43842;DHT22;29495;49.970;20.842;2022-08-20T14:22:54;32.40;69.90
43842;DHT22;29495;49.970;20.842;2022-08-20T14:25:21;32.30;69.50
43842;DHT22;29495;49.970;20.842;2022-08-20T14:27:48;31.90;68.20
43842;DHT22;29495;49.970;20.842;2022-08-20T14:30:21;31.90;69.10
43842;DHT22;29495;49.970;20.842;2022-08-20T14:32:47;31.60;69.10
43842;DHT22;29495;49.970;20.842;2022-08-20T14:35:14;31.60;70.50
43842;DHT22;29495;49.970;20.842;2022-08-20T14:37:42;31.70;70.70
43842;DHT22;29495;49.970;20.842;2022-08-20T14:40:15;31.70;70.20
43842;DHT22;29495;49.970;20.842;2022-08-20T14:42:42;31.60;68.60
43842;DHT22;29495;49.970;20.842;2022-08-20T14:45:10;31.80;70.40
43842;DHT22;29495;49.970;20.842;2022-08-20T14:47:37;31.60;71.00
43842;DHT22;29495;49.970;20.842;2022-08-20T14:50:17;31.60;71.80
43842;DHT22;29495;49.970;20.842;2022-08-20T14:52:44;31.60;70.70
43842;DHT22;29495;49.970;20.842;2022-08-20T14:55:13;31.60;69.80
43842;DHT22;29495;49.970;20.842;2022-08-20T14:57:40;31.50;71.50
43842;DHT22;29495;49.970;20.842;2022-08-20T15:00:10;31.30;75.20
43842;DHT22;29495;49.970;20.842;2022-08-20T15:02:37;30.50;77.10
43842;DHT22;29495;49.970;20.842;2022-08-20T15:05:04;30.20;83.50
43842;DHT22;29495;49.970;20.842;2022-08-20T15:07:33;29.70;86.20
43842;DHT22;29495;49.970;20.842;2022-08-20T15:10:01;29.40;89.80
43842;DHT22;29495;49.970;20.842;2022-08-20T15:12:30;29.10;91.20
43842;DHT22;29495;49.970;20.842;2022-08-20T15:14:56;28.70;93.20
43842;DHT22;29495;49.970;20.842;2022-08-20T15:17:25;28.60;94.60
43842;DHT22;29495;49.970;20.842;2022-08-20T15:19:53;28.40;95.00
43842;DHT22;29495;49.970;20.842;2022-08-20T15:22:21;28.20;96.10
43842;DHT22;29495;49.970;20.842;2022-08-20T15:24:47;28.10;97.00
43842;DHT22;29495;49.970;20.842;2022-08-20T15:27:18;27.90;98.20